sensor_id;sensor_type;location;lat;lon;timestamp;temperature;humidity
28336;DHT22;15592;53.656;7.276;2023-10-13T00:01:01;13.30;99.90
28336;DHT22;15592;53.656;7.276;2023-10-13T00:03:30;13.30;99.90
28336;DHT22;15592;53.656;7.276;2023-10-13T00:06:00;13.30;99.90
28336;DHT22;15592;53.656;7.276;2023-10-13T00:08:31;13.40;99.90
28336;DHT22;15592;53.656;7.276;2023-10-13T00:10:57;13.30;99.90
28336;DHT22;15592;53.656;7.276;2023-10-13T00:13:28;13.30;99.90
28336;DHT22;15592;53.656;7.276;2023-10-13T00:15:57;13.30;99.90
28336;DHT22;15592;53.656;7.276;2023-10-13T00:18:27;13.40;99.90
28336;DHT22;15592;53.656;7.276;2023-10-13T00:20:58;13.40;99.90
28336;DHT22;15592;53.656;7.276;2023-10-13T00:23:24;13.40;99.90
28336;DHT22;15592;53.656;7.276;2023-10-13T00:25:53;13.40;99.90
28336;DHT22;15592;53.656;7.276;2023-10-13T00:28:28;13.40;99.90
28336;DHT22;15592;53.656;7.276;2023-10-13T00:31:01;13.40;99.90
28336;DHT22;15592;53.656;7.276;2023-10-13T00:33:36;13.40;99.90
28336;DHT22;15592;53.656;7.276;2023-10-13T00:36:04;13.40;99.90
28336;DHT22;15592;53.656;7.276;2023-10-13T00:38:30;13.40;99.90
28336;DHT22;15592;53.656;7.276;2023-10-13T00:40:56;13.40;99.90
28336;DHT22;15592;53.656;7.276;2023-10-13T00:43:28;13.40;99.90
28336;DHT22;15592;53.656;7.276;2023-10-13T00:46:00;13.40;99.90
28336;DHT22;15592;53.656;7.276;2023-10-13T00:48:30;13.40;99.90
28336;DHT22;15592;53.656;7.276;2023-10-13T00:51:04;13.40;99.90
28336;DHT22;15592;53.656;7.276;2023-10-13T00:53:36;13.40;99.90
28336;DHT22;15592;53.656;7.276;2023-10-13T00:56:06;13.50;99.90
28336;DHT22;15592;53.656;7.276;2023-10-13T00:58:49;13.50;99.90
28336;DHT22;15592;53.656;7.276;2023-10-13T01:01:19;13.50;99.90
28336;DHT22;15592;53.656;7.276;2023-10-13T01:03:49;13.50;99.90
28336;DHT22;15592;53.656;7.276;2023-10-13T01:06:17;13.50;99.90
28336;DHT22;15592;53.656;7.276;2023-10-13T01:08:47;13.50;99.90
28336;DHT22;15592;53.656;7.276;2023-10-13T01:11:19;13.50;99.90
28336;DHT22;15592;53.656;7.276;2023-10-13T01:13:45;13.50;99.90
28336;DHT22;15592;53.656;7.276;2023-10-13T01:16:19;13.50;99.90
28336;DHT22;15592;53.656;7.276;2023-10-13T01:18:49;13.50;99.90
28336;DHT22;15592;53.656;7.276;2023-10-13T01:21:18;13.60;99.90
28336;DHT22;15592;53.656;7.276;2023-10-13T01:23:46;13.60;99.90
28336;DHT22;15592;53.656;7.276;2023-10-13T01:26:13;13.60;99.90
28336;DHT22;15592;53.656;7.276;2023-10-13T01:28:46;13.60;99.90
28336;DHT22;15592;53.656;7.276;2023-10-13T01:31:13;13.60;99.90
28336;DHT22;15592;53.656;7.276;2023-10-13T01:33:44;13.60;99.90
28336;DHT22;15592;53.656;7.276;2023-10-13T01:36:10;13.60;99.90
28336;DHT22;15592;53.656;7.276;2023-10-13T01:38:37;13.70;99.90
28336;DHT22;15592;53.656;7.276;2023-10-13T01:41:06;13.70;99.90
28336;DHT22;15592;53.656;7.276;2023-10-13T01:43:34;13.70;99.90
28336;DHT22;15592;53.656;7.276;2023-10-13T01:46:00;13.80;99.90
28336;DHT22;15592;53.656;7.276;2023-10-13T01:48:27;13.70;99.90
28336;DHT22;15592;53.656;7.276;2023-10-13T01:50:56;13.80;99.90
28336;DHT22;15592;53.656;7.276;2023-10-13T01:53:25;13.80;99.90
28336;DHT22;15592;53.656;7.276;2023-10-13T01:55:54;13.80;99.90
28336;DHT22;15592;53.656;7.276;2023-10-13T01:58:22;13.90;99.90
28336;DHT22;15592;53.656;7.276;2023-10-13T02:00:48;13.90;99.90
28336;DHT22;15592;53.656;7.276;2023-10-13T02:03:15;13.90;99.90
28336;DHT22;15592;53.656;7.276;2023-10-13T02:05:46;14.00;99.90
28336;DHT22;15592;53.656;7.276;2023-10-13T02:08:15;14.00;99.90
28336;DHT22;15592;53.656;7.276;2023-10-13T02:10:53;14.00;99.90
28336;DHT22;15592;53.656;7.276;2023-10-13T02:13:21;14.10;99.90
28336;DHT22;15592;53.656;7.276;2023-10-13T02:15:48;14.10;99.90
28336;DHT22;15592;53.656;7.276;2023-10-13T02:18:18;14.20;99.90
28336;DHT22;15592;53.656;7.276;2023-10-13T02:20:49;14.20;99.90
28336;DHT22;15592;53.656;7.276;2023-10-13T02:23:24;14.30;99.90
28336;DHT22;15592;53.656;7.276;2023-10-13T02:25:50;14.30;99.90
28336;DHT22;15592;53.656;7.276;2023-10-13T02:28:27;14.30;99.90
28336;DHT22;15592;53.656;7.276;2023-10-13T02:30:55;14.40;99.90
28336;DHT22;15592;53.656;7.276;2023-10-13T02:33:23;14.40;99.90
28336;DHT22;15592;53.656;7.276;2023-10-13T02:35:58;14.40;99.90
28336;DHT22;15592;53.656;7.276;2023-10-13T02:38:24;14.50;99.90
28336;DHT22;15592;53.656;7.276;2023-10-13T02:41:17;14.50;99.90
28336;DHT22;15592;53.656;7.276;2023-10-13T02:43:52;14.50;99.90
28336;DHT22;15592;53.656;7.276;2023-10-13T02:46:22;14.60;99.90
28336;DHT22;15592;53.656;7.276;2023-10-13T02:48:48;14.70;99.90
28336;DHT22;15592;53.656;7.276;2023-10-13T02:51:22;14.70;99.90
28336;DHT22;15592;53.656;7.276;2023-10-13T02:53:57;14.80;99.90
28336;DHT22;15592;53.656;7.276;2023-10-13T02:56:29;14.80;99.90
28336;DHT22;15592;53.656;7.276;2023-10-13T02:58:55;14.80;99.90
28336;DHT22;15592;53.656;7.276;2023-10-13T03:01:31;14.90;99.90
28336;DHT22;15592;53.656;7.276;2023-10-13T03:04:00;14.90;99.90
28336;DHT22;15592;53.656;7.276;2023-10-13T03:06:26;15.00;99.90
28336;DHT22;15592;53.656;7.276;2023-10-13T03:09:06;14.90;99.90
28336;DHT22;15592;53.656;7.276;2023-10-13T03:11:50;15.00;99.90
28336;DHT22;15592;53.656;7.276;2023-10-13T03:14:20;15.10;99.90
28336;DHT22;15592;53.656;7.276;2023-10-13T03:16:53;15.10;99.90
28336;DHT22;15592;53.656;7.276;2023-10-13T03:19:19;15.10;99.90
28336;DHT22;15592;53.656;7.276;2023-10-13T03:21:45;15.10;99.90
28336;DHT22;15592;53.656;7.276;2023-10-13T03:24:21;15.10;99.90
28336;DHT22;15592;53.656;7.276;2023-10-13T03:27:02;15.20;99.90
28336;DHT22;15592;53.656;7.276;2023-10-13T03:29:39;15.20;99.90
28336;DHT22;15592;53.656;7.276;2023-10-13T03:32:14;15.20;99.90
28336;DHT22;15592;53.656;7.276;2023-10-13T03:34:41;15.20;99.90
28336;DHT22;15592;53.656;7.276;2023-10-13T03:37:19;15.20;99.90
28336;DHT22;15592;53.656;7.276;2023-10-13T03:40:05;15.20;99.90
28336;DHT22;15592;53.656;7.276;2023-10-13T03:42:34;15.30;99.90
28336;DHT22;15592;53.656;7.276;2023-10-13T03:44:59;15.30;99.90
28336;DHT22;15592;53.656;7.276;2023-10-13T03:47:25;15.30;99.90
28336;DHT22;15592;53.656;7.276;2023-10-13T03:49:57;15.30;99.90
28336;DHT22;15592;53.656;7.276;2023-10-13T03:52:41;15.30;99.90
28336;DHT22;15592;53.656;7.276;2023-10-13T03:55:08;15.30;99.90
28336;DHT22;15592;53.656;7.276;2023-10-13T03:57:41;15.30;99.90
28336;DHT22;15592;53.656;7.276;2023-10-13T04:00:08;15.30;99.90
28336;DHT22;15592;53.656;7.276;2023-10-13T04:02:35;15.40;99.90
28336;DHT22;15592;53.656;7.276;2023-10-13T04:05:02;15.40;99.90
28336;DHT22;15592;53.656;7.276;2023-10-13T04:07:48;15.40;99.90
28336;DHT22;15592;53.656;7.276;2023-10-13T04:10:32;15.30;99.90
28336;DHT22;15592;53.656;7.276;2023-10-13T04:13:32;15.40;99.90
28336;DHT22;15592;53.656;7.276;2023-10-13T04:16:16;15.40;99.90
28336;DHT22;15592;53.656;7.276;2023-10-13T04:18:50;15.30;99.90
28336;DHT22;15592;53.656;7.276;2023-10-13T04:21:16;15.40;99.90
28336;DHT22;15592;53.656;7.276;2023-10-13T04:24:09;15.40;99.90
28336;DHT22;15592;53.656;7.276;2023-10-13T04:26:51;15.40;99.90
28336;DHT22;15592;53.656;7.276;2023-10-13T04:29:36;15.40;99.90
28336;DHT22;15592;53.656;7.276;2023-10-13T04:32:14;15.40;99.90
28336;DHT22;15592;53.656;7.276;2023-10-13T04:34:45;15.40;99.90
28336;DHT22;15592;53.656;7.276;2023-10-13T04:37:14;15.40;99.90
28336;DHT22;15592;53.656;7.276;2023-10-13T04:39:57;15.40;99.90
28336;DHT22;15592;53.656;7.276;2023-10-13T04:42:34;15.40;99.90
28336;DHT22;15592;53.656;7.276;2023-10-13T04:45:16;15.40;99.90
28336;DHT22;15592;53.656;7.276;2023-10-13T04:48:02;15.40;99.90
28336;DHT22;15592;53.656;7.276;2023-10-13T04:51:00;15.40;99.90
28336;DHT22;15592;53.656;7.276;2023-10-13T04:53:46;15.40;99.90
28336;DHT22;15592;53.656;7.276;2023-10-13T04:56:30;15.50;99.90
28336;DHT22;15592;53.656;7.276;2023-10-13T04:59:08;15.40;99.90
28336;DHT22;15592;53.656;7.276;2023-10-13T05:01:52;15.40;99.90
28336;DHT22;15592;53.656;7.276;2023-10-13T05:04:36;15.50;99.90
28336;DHT22;15592;53.656;7.276;2023-10-13T05:07:24;15.40;99.90
28336;DHT22;15592;53.656;7.276;2023-10-13T05:10:23;15.50;99.90
28336;DHT22;15592;53.656;7.276;2023-10-13T05:13:07;15.50;99.90
28336;DHT22;15592;53.656;7.276;2023-10-13T05:15:51;15.50;99.90
28336;DHT22;15592;53.656;7.276;2023-10-13T05:18:36;15.50;99.90
28336;DHT22;15592;53.656;7.276;2023-10-13T05:21:21;15.50;99.90
28336;DHT22;15592;53.656;7.276;2023-10-13T05:24:05;15.50;99.90
28336;DHT22;15592;53.656;7.276;2023-10-13T05:26:51;15.50;99.90
28336;DHT22;15592;53.656;7.276;2023-10-13T05:29:39;15.60;99.90
28336;DHT22;15592;53.656;7.276;2023-10-13T05:32:23;15.60;99.90
28336;DHT22;15592;53.656;7.276;2023-10-13T05:35:07;15.60;99.90
28336;DHT22;15592;53.656;7.276;2023-10-13T05:37:51;15.60;99.90
28336;DHT22;15592;53.656;7.276;2023-10-13T05:40:35;15.60;99.90
28336;DHT22;15592;53.656;7.276;2023-10-13T05:43:19;15.60;99.90
28336;DHT22;15592;53.656;7.276;2023-10-13T05:46:04;15.60;99.90
28336;DHT22;15592;53.656;7.276;2023-10-13T05:49:03;15.60;99.90
28336;DHT22;15592;53.656;7.276;2023-10-13T05:51:32;15.60;99.90
28336;DHT22;15592;53.656;7.276;2023-10-13T05:54:00;15.60;99.90
28336;DHT22;15592;53.656;7.276;2023-10-13T05:56:49;15.70;99.90
28336;DHT22;15592;53.656;7.276;2023-10-13T05:59:43;15.70;99.90
28336;DHT22;15592;53.656;7.276;2023-10-13T06:02:28;15.70;99.90
28336;DHT22;15592;53.656;7.276;2023-10-13T06:05:13;15.70;99.90
28336;DHT22;15592;53.656;7.276;2023-10-13T06:07:58;15.70;99.90
28336;DHT22;15592;53.656;7.276;2023-10-13T06:10:43;15.70;99.90
28336;DHT22;15592;53.656;7.276;2023-10-13T06:13:27;15.70;99.90
28336;DHT22;15592;53.656;7.276;2023-10-13T06:16:13;15.70;99.90
28336;DHT22;15592;53.656;7.276;2023-10-13T06:18:57;15.70;99.90
28336;DHT22;15592;53.656;7.276;2023-10-13T06:21:42;15.70;99.90
28336;DHT22;15592;53.656;7.276;2023-10-13T06:24:26;15.70;99.90
28336;DHT22;15592;53.656;7.276;2023-10-13T06:27:10;15.60;99.90
28336;DHT22;15592;53.656;7.276;2023-10-13T06:29:54;15.60;99.90
28336;DHT22;15592;53.656;7.276;2023-10-13T06:32:20;15.60;99.90
28336;DHT22;15592;53.656;7.276;2023-10-13T06:34:54;15.60;99.90
28336;DHT22;15592;53.656;7.276;2023-10-13T06:37:48;15.60;99.90
28336;DHT22;15592;53.656;7.276;2023-10-13T06:40:14;15.60;99.90
28336;DHT22;15592;53.656;7.276;2023-10-13T06:42:54;15.60;99.90
28336;DHT22;15592;53.656;7.276;2023-10-13T06:45:38;15.60;99.90
28336;DHT22;15592;53.656;7.276;2023-10-13T06:48:05;15.60;99.90
28336;DHT22;15592;53.656;7.276;2023-10-13T06:50:30;15.50;99.90
28336;DHT22;15592;53.656;7.276;2023-10-13T06:53:05;15.60;99.90
28336;DHT22;15592;53.656;7.276;2023-10-13T06:55:30;15.50;99.90
28336;DHT22;15592;53.656;7.276;2023-10-13T06:58:03;15.50;99.90
28336;DHT22;15592;53.656;7.276;2023-10-13T07:00:32;15.40;99.90
28336;DHT22;15592;53.656;7.276;2023-10-13T07:03:06;15.50;99.90
28336;DHT22;15592;53.656;7.276;2023-10-13T07:05:39;15.50;99.90
28336;DHT22;15592;53.656;7.276;2023-10-13T07:08:07;15.50;99.90
28336;DHT22;15592;53.656;7.276;2023-10-13T07:10:35;15.50;99.90
28336;DHT22;15592;53.656;7.276;2023-10-13T07:13:19;15.50;99.90
28336;DHT22;15592;53.656;7.276;2023-10-13T07:15:48;15.50;99.90
28336;DHT22;15592;53.656;7.276;2023-10-13T07:18:15;15.50;99.90
28336;DHT22;15592;53.656;7.276;2023-10-13T07:20:43;15.50;99.90
28336;DHT22;15592;53.656;7.276;2023-10-13T07:23:12;15.50;99.90
28336;DHT22;15592;53.656;7.276;2023-10-13T07:25:52;15.50;99.90
28336;DHT22;15592;53.656;7.276;2023-10-13T07:28:31;15.50;99.90
28336;DHT22;15592;53.656;7.276;2023-10-13T07:31:02;15.50;99.90
28336;DHT22;15592;53.656;7.276;2023-10-13T07:33:27;15.50;99.90
28336;DHT22;15592;53.656;7.276;2023-10-13T07:36:06;15.50;99.90
28336;DHT22;15592;53.656;7.276;2023-10-13T07:38:50;15.50;99.90
28336;DHT22;15592;53.656;7.276;2023-10-13T07:41:25;15.50;99.90
28336;DHT22;15592;53.656;7.276;2023-10-13T07:43:56;15.60;99.90
28336;DHT22;15592;53.656;7.276;2023-10-13T07:46:23;15.60;99.90
28336;DHT22;15592;53.656;7.276;2023-10-13T07:48:56;15.60;99.90
28336;DHT22;15592;53.656;7.276;2023-10-13T07:51:35;15.70;99.90
28336;DHT22;15592;53.656;7.276;2023-10-13T07:54:10;15.70;99.90
28336;DHT22;15592;53.656;7.276;2023-10-13T07:56:38;15.70;99.90
28336;DHT22;15592;53.656;7.276;2023-10-13T07:59:05;15.70;99.90
28336;DHT22;15592;53.656;7.276;2023-10-13T08:01:32;15.80;99.90
28336;DHT22;15592;53.656;7.276;2023-10-13T08:03:59;15.80;99.90
28336;DHT22;15592;53.656;7.276;2023-10-13T08:06:33;15.80;99.90
28336;DHT22;15592;53.656;7.276;2023-10-13T08:09:02;15.80;99.90
28336;DHT22;15592;53.656;7.276;2023-10-13T08:11:35;15.80;99.90
28336;DHT22;15592;53.656;7.276;2023-10-13T08:14:03;15.90;99.90
28336;DHT22;15592;53.656;7.276;2023-10-13T08:16:48;15.80;99.90
28336;DHT22;15592;53.656;7.276;2023-10-13T08:19:24;15.90;99.90
28336;DHT22;15592;53.656;7.276;2023-10-13T08:21:58;15.80;99.90
28336;DHT22;15592;53.656;7.276;2023-10-13T08:24:28;15.80;99.90
28336;DHT22;15592;53.656;7.276;2023-10-13T08:26:53;15.80;99.90
28336;DHT22;15592;53.656;7.276;2023-10-13T08:29:37;15.80;99.90
28336;DHT22;15592;53.656;7.276;2023-10-13T08:32:22;15.70;99.90
28336;DHT22;15592;53.656;7.276;2023-10-13T08:34:58;15.70;99.90
28336;DHT22;15592;53.656;7.276;2023-10-13T08:37:24;15.70;99.90
28336;DHT22;15592;53.656;7.276;2023-10-13T08:39:52;15.60;99.90
28336;DHT22;15592;53.656;7.276;2023-10-13T08:42:44;15.60;99.90
28336;DHT22;15592;53.656;7.276;2023-10-13T08:45:12;15.60;99.90
28336;DHT22;15592;53.656;7.276;2023-10-13T08:47:55;15.50;99.90
28336;DHT22;15592;53.656;7.276;2023-10-13T08:50:52;15.60;99.90
28336;DHT22;15592;53.656;7.276;2023-10-13T08:53:28;15.50;99.90
28336;DHT22;15592;53.656;7.276;2023-10-13T08:56:12;15.60;99.90
28336;DHT22;15592;53.656;7.276;2023-10-13T08:58:50;15.50;99.90
28336;DHT22;15592;53.656;7.276;2023-10-13T09:01:19;15.60;99.90
28336;DHT22;15592;53.656;7.276;2023-10-13T09:04:06;15.60;99.90
28336;DHT22;15592;53.656;7.276;2023-10-13T09:12:30;15.50;99.90
28336;DHT22;15592;53.656;7.276;2023-10-13T09:15:04;15.50;99.90
28336;DHT22;15592;53.656;7.276;2023-10-13T09:17:49;15.50;99.90
28336;DHT22;15592;53.656;7.276;2023-10-13T09:20:32;15.60;99.90
28336;DHT22;15592;53.656;7.276;2023-10-13T09:23:10;15.60;99.90
28336;DHT22;15592;53.656;7.276;2023-10-13T09:25:39;15.60;99.90
28336;DHT22;15592;53.656;7.276;2023-10-13T09:28:28;15.70;99.90
28336;DHT22;15592;53.656;7.276;2023-10-13T09:30:55;15.70;99.90
28336;DHT22;15592;53.656;7.276;2023-10-13T09:33:28;15.70;99.90
28336;DHT22;15592;53.656;7.276;2023-10-13T09:35:58;15.80;99.90
28336;DHT22;15592;53.656;7.276;2023-10-13T09:38:26;15.80;99.90
28336;DHT22;15592;53.656;7.276;2023-10-13T09:40:53;15.90;99.90
28336;DHT22;15592;53.656;7.276;2023-10-13T09:43:23;16.00;99.90
28336;DHT22;15592;53.656;7.276;2023-10-13T09:45:51;16.00;99.90
28336;DHT22;15592;53.656;7.276;2023-10-13T09:48:37;16.10;99.90
28336;DHT22;15592;53.656;7.276;2023-10-13T09:51:15;16.10;99.90
28336;DHT22;15592;53.656;7.276;2023-10-13T09:53:51;16.10;99.90
28336;DHT22;15592;53.656;7.276;2023-10-13T09:56:26;16.20;99.90
28336;DHT22;15592;53.656;7.276;2023-10-13T09:59:02;16.30;99.90
28336;DHT22;15592;53.656;7.276;2023-10-13T10:01:40;16.40;99.90
28336;DHT22;15592;53.656;7.276;2023-10-13T10:04:17;16.50;99.90
28336;DHT22;15592;53.656;7.276;2023-10-13T10:06:57;16.70;99.90
28336;DHT22;15592;53.656;7.276;2023-10-13T10:09:30;16.80;99.90
28336;DHT22;15592;53.656;7.276;2023-10-13T10:18:18;17.00;99.90
28336;DHT22;15592;53.656;7.276;2023-10-13T10:20:45;17.10;99.90
28336;DHT22;15592;53.656;7.276;2023-10-13T10:23:24;17.20;99.90
28336;DHT22;15592;53.656;7.276;2023-10-13T10:25:50;17.10;99.90
28336;DHT22;15592;53.656;7.276;2023-10-13T10:28:35;17.20;99.90
28336;DHT22;15592;53.656;7.276;2023-10-13T10:31:07;17.20;99.90
28336;DHT22;15592;53.656;7.276;2023-10-13T10:33:38;17.20;99.90
28336;DHT22;15592;53.656;7.276;2023-10-13T10:36:04;17.20;99.90
28336;DHT22;15592;53.656;7.276;2023-10-13T10:38:31;17.30;99.90
28336;DHT22;15592;53.656;7.276;2023-10-13T10:41:06;17.30;99.90
28336;DHT22;15592;53.656;7.276;2023-10-13T10:43:36;17.40;99.90
28336;DHT22;15592;53.656;7.276;2023-10-13T10:46:15;17.40;99.90
28336;DHT22;15592;53.656;7.276;2023-10-13T10:48:41;17.40;99.90
28336;DHT22;15592;53.656;7.276;2023-10-13T10:51:14;17.50;99.90
28336;DHT22;15592;53.656;7.276;2023-10-13T10:53:52;17.50;99.90
28336;DHT22;15592;53.656;7.276;2023-10-13T10:56:23;17.60;99.90
28336;DHT22;15592;53.656;7.276;2023-10-13T10:59:07;17.60;99.90
28336;DHT22;15592;53.656;7.276;2023-10-13T11:01:54;17.70;99.90
28336;DHT22;15592;53.656;7.276;2023-10-13T11:04:20;17.80;99.90
28336;DHT22;15592;53.656;7.276;2023-10-13T11:06:55;17.80;99.90
28336;DHT22;15592;53.656;7.276;2023-10-13T11:09:29;17.90;99.90
28336;DHT22;15592;53.656;7.276;2023-10-13T11:12:10;18.00;99.90
28336;DHT22;15592;53.656;7.276;2023-10-13T11:14:44;18.10;99.90
28336;DHT22;15592;53.656;7.276;2023-10-13T11:17:22;18.10;99.90
28336;DHT22;15592;53.656;7.276;2023-10-13T11:19:52;18.30;99.90
28336;DHT22;15592;53.656;7.276;2023-10-13T11:22:21;18.50;99.90
28336;DHT22;15592;53.656;7.276;2023-10-13T11:25:03;18.60;99.90
28336;DHT22;15592;53.656;7.276;2023-10-13T11:27:36;18.60;99.90
28336;DHT22;15592;53.656;7.276;2023-10-13T11:30:17;18.60;99.90
28336;DHT22;15592;53.656;7.276;2023-10-13T11:33:04;18.60;99.90
28336;DHT22;15592;53.656;7.276;2023-10-13T11:35:37;18.60;99.90
28336;DHT22;15592;53.656;7.276;2023-10-13T11:38:31;18.70;99.90
28336;DHT22;15592;53.656;7.276;2023-10-13T11:41:10;18.70;99.90
28336;DHT22;15592;53.656;7.276;2023-10-13T11:43:46;18.80;99.90
28336;DHT22;15592;53.656;7.276;2023-10-13T11:46:18;18.80;99.90
28336;DHT22;15592;53.656;7.276;2023-10-13T11:49:09;18.80;99.90
28336;DHT22;15592;53.656;7.276;2023-10-13T11:51:41;18.90;99.90
28336;DHT22;15592;53.656;7.276;2023-10-13T11:54:11;18.90;99.90
28336;DHT22;15592;53.656;7.276;2023-10-13T11:56:37;19.00;99.90
28336;DHT22;15592;53.656;7.276;2023-10-13T11:59:04;18.90;99.90
28336;DHT22;15592;53.656;7.276;2023-10-13T12:01:31;19.00;99.90
28336;DHT22;15592;53.656;7.276;2023-10-13T12:04:16;19.00;99.90
28336;DHT22;15592;53.656;7.276;2023-10-13T12:07:04;18.90;99.90
28336;DHT22;15592;53.656;7.276;2023-10-13T12:09:39;18.90;99.90
28336;DHT22;15592;53.656;7.276;2023-10-13T12:12:23;18.90;99.90
28336;DHT22;15592;53.656;7.276;2023-10-13T12:14:49;18.90;99.90
28336;DHT22;15592;53.656;7.276;2023-10-13T12:17:22;18.90;99.90
28336;DHT22;15592;53.656;7.276;2023-10-13T12:19:57;19.00;99.90
28336;DHT22;15592;53.656;7.276;2023-10-13T12:22:24;19.00;99.90
28336;DHT22;15592;53.656;7.276;2023-10-13T12:24:56;19.10;99.90
28336;DHT22;15592;53.656;7.276;2023-10-13T12:27:22;19.00;99.90
28336;DHT22;15592;53.656;7.276;2023-10-13T12:30:00;19.10;99.90
28336;DHT22;15592;53.656;7.276;2023-10-13T12:32:33;19.00;99.90
28336;DHT22;15592;53.656;7.276;2023-10-13T12:35:00;19.00;99.90
28336;DHT22;15592;53.656;7.276;2023-10-13T12:37:27;18.90;99.90
28336;DHT22;15592;53.656;7.276;2023-10-13T12:40:14;18.90;99.90
28336;DHT22;15592;53.656;7.276;2023-10-13T12:42:58;18.80;99.90
28336;DHT22;15592;53.656;7.276;2023-10-13T12:45:44;18.70;99.90
28336;DHT22;15592;53.656;7.276;2023-10-13T12:48:28;18.50;99.90
28336;DHT22;15592;53.656;7.276;2023-10-13T12:51:13;18.50;99.90
28336;DHT22;15592;53.656;7.276;2023-10-13T12:56:45;18.30;99.90
28336;DHT22;15592;53.656;7.276;2023-10-13T12:59:11;18.30;99.90
28336;DHT22;15592;53.656;7.276;2023-10-13T13:01:39;18.30;99.90
28336;DHT22;15592;53.656;7.276;2023-10-13T13:04:11;18.30;99.90
28336;DHT22;15592;53.656;7.276;2023-10-13T13:06:38;18.20;99.90
28336;DHT22;15592;53.656;7.276;2023-10-13T13:09:06;18.20;99.90
28336;DHT22;15592;53.656;7.276;2023-10-13T13:11:40;18.20;99.90
28336;DHT22;15592;53.656;7.276;2023-10-13T13:14:07;18.10;99.90
28336;DHT22;15592;53.656;7.276;2023-10-13T13:16:33;18.00;99.90
28336;DHT22;15592;53.656;7.276;2023-10-13T13:18:59;18.00;99.90
28336;DHT22;15592;53.656;7.276;2023-10-13T13:21:28;17.90;99.90
28336;DHT22;15592;53.656;7.276;2023-10-13T13:23:54;17.90;99.90
28336;DHT22;15592;53.656;7.276;2023-10-13T13:26:22;17.80;99.90
28336;DHT22;15592;53.656;7.276;2023-10-13T13:28:49;17.70;99.90
28336;DHT22;15592;53.656;7.276;2023-10-13T13:31:19;17.70;99.90
28336;DHT22;15592;53.656;7.276;2023-10-13T13:33:50;17.70;99.90
28336;DHT22;15592;53.656;7.276;2023-10-13T13:36:16;17.60;99.90
28336;DHT22;15592;53.656;7.276;2023-10-13T13:38:43;17.60;99.90
28336;DHT22;15592;53.656;7.276;2023-10-13T13:41:12;17.60;99.90
28336;DHT22;15592;53.656;7.276;2023-10-13T13:43:48;17.50;99.90
28336;DHT22;15592;53.656;7.276;2023-10-13T13:46:26;17.50;99.90
28336;DHT22;15592;53.656;7.276;2023-10-13T13:48:59;17.50;99.90
28336;DHT22;15592;53.656;7.276;2023-10-13T13:51:29;17.50;99.90
28336;DHT22;15592;53.656;7.276;2023-10-13T13:53:58;17.40;99.90
28336;DHT22;15592;53.656;7.276;2023-10-13T13:56:25;17.40;99.90
28336;DHT22;15592;53.656;7.276;2023-10-13T13:58:53;17.40;99.90
28336;DHT22;15592;53.656;7.276;2023-10-13T14:01:19;17.40;99.90
28336;DHT22;15592;53.656;7.276;2023-10-13T14:03:48;17.40;99.90
28336;DHT22;15592;53.656;7.276;2023-10-13T14:06:20;17.40;99.90
28336;DHT22;15592;53.656;7.276;2023-10-13T14:08:53;17.40;99.90
28336;DHT22;15592;53.656;7.276;2023-10-13T14:11:24;17.40;99.90
28336;DHT22;15592;53.656;7.276;2023-10-13T14:13:53;17.40;99.90
28336;DHT22;15592;53.656;7.276;2023-10-13T14:16:21;17.40;99.90
28336;DHT22;15592;53.656;7.276;2023-10-13T14:18:51;17.30;99.90
28336;DHT22;15592;53.656;7.276;2023-10-13T14:21:17;17.30;99.90
28336;DHT22;15592;53.656;7.276;2023-10-13T14:23:48;17.30;99.90
28336;DHT22;15592;53.656;7.276;2023-10-13T14:26:17;17.30;99.90
28336;DHT22;15592;53.656;7.276;2023-10-13T14:28:47;17.40;99.90
28336;DHT22;15592;53.656;7.276;2023-10-13T14:31:46;17.40;99.90
28336;DHT22;15592;53.656;7.276;2023-10-13T14:34:14;17.40;99.90
28336;DHT22;15592;53.656;7.276;2023-10-13T14:36:40;17.40;99.90
28336;DHT22;15592;53.656;7.276;2023-10-13T14:39:07;17.40;99.90
28336;DHT22;15592;53.656;7.276;2023-10-13T14:41:36;17.40;99.90
28336;DHT22;15592;53.656;7.276;2023-10-13T14:44:03;17.40;99.90
28336;DHT22;15592;53.656;7.276;2023-10-13T14:46:32;17.40;99.90
28336;DHT22;15592;53.656;7.276;2023-10-13T14:49:01;17.40;99.90
28336;DHT22;15592;53.656;7.276;2023-10-13T14:51:28;17.40;99.90
28336;DHT22;15592;53.656;7.276;2023-10-13T14:53:54;17.50;99.90
28336;DHT22;15592;53.656;7.276;2023-10-13T14:56:25;17.50;99.90
28336;DHT22;15592;53.656;7.276;2023-10-13T14:58:52;17.50;99.90
28336;DHT22;15592;53.656;7.276;2023-10-13T15:01:23;17.60;99.90
28336;DHT22;15592;53.656;7.276;2023-10-13T15:03:53;17.60;99.90
28336;DHT22;15592;53.656;7.276;2023-10-13T15:06:24;17.60;99.90
28336;DHT22;15592;53.656;7.276;2023-10-13T15:08:51;17.70;99.90
28336;DHT22;15592;53.656;7.276;2023-10-13T15:11:19;17.70;99.90
28336;DHT22;15592;53.656;7.276;2023-10-13T15:13:45;17.60;99.90
28336;DHT22;15592;53.656;7.276;2023-10-13T15:16:18;17.70;99.90
28336;DHT22;15592;53.656;7.276;2023-10-13T15:18:48;17.70;99.90
28336;DHT22;15592;53.656;7.276;2023-10-13T15:21:25;17.70;99.90
28336;DHT22;15592;53.656;7.276;2023-10-13T15:23:58;17.70;99.90
28336;DHT22;15592;53.656;7.276;2023-10-13T15:26:30;17.70;99.90
28336;DHT22;15592;53.656;7.276;2023-10-13T15:28:57;17.80;99.90
28336;DHT22;15592;53.656;7.276;2023-10-13T15:31:23;17.80;99.90
28336;DHT22;15592;53.656;7.276;2023-10-13T15:33:54;17.80;99.90
28336;DHT22;15592;53.656;7.276;2023-10-13T15:36:21;17.80;99.90
28336;DHT22;15592;53.656;7.276;2023-10-13T15:38:49;17.80;99.90
28336;DHT22;15592;53.656;7.276;2023-10-13T15:41:24;17.80;99.90
28336;DHT22;15592;53.656;7.276;2023-10-13T15:43:50;17.90;99.90
28336;DHT22;15592;53.656;7.276;2023-10-13T15:46:17;17.90;99.90
28336;DHT22;15592;53.656;7.276;2023-10-13T15:48:43;17.80;99.90
28336;DHT22;15592;53.656;7.276;2023-10-13T15:51:12;17.80;99.90
28336;DHT22;15592;53.656;7.276;2023-10-13T15:53:42;17.70;99.90
28336;DHT22;15592;53.656;7.276;2023-10-13T15:56:09;17.70;99.90
28336;DHT22;15592;53.656;7.276;2023-10-13T15:58:41;17.70;99.90
28336;DHT22;15592;53.656;7.276;2023-10-13T16:01:09;17.70;99.90
28336;DHT22;15592;53.656;7.276;2023-10-13T16:03:41;17.60;99.90
28336;DHT22;15592;53.656;7.276;2023-10-13T16:06:15;17.60;99.90
28336;DHT22;15592;53.656;7.276;2023-10-13T16:08:42;17.60;99.90
28336;DHT22;15592;53.656;7.276;2023-10-13T16:11:10;17.60;99.90
28336;DHT22;15592;53.656;7.276;2023-10-13T16:13:39;17.60;99.90
28336;DHT22;15592;53.656;7.276;2023-10-13T16:16:05;17.60;99.90
28336;DHT22;15592;53.656;7.276;2023-10-13T16:18:32;17.60;99.90
28336;DHT22;15592;53.656;7.276;2023-10-13T16:21:01;17.60;99.90
28336;DHT22;15592;53.656;7.276;2023-10-13T16:23:29;17.60;99.90
28336;DHT22;15592;53.656;7.276;2023-10-13T16:25:55;17.50;99.90